Time;durP1;ratioP1;P1;durP2;ratioP2;P2;SDS_P1;SDS_P2;PMS_P1;PMS_P2;Temp;Humidity;BMP_temperature;BMP_pressure;BME280_temperature;BME280_humidity;BME280_pressure;Samples;Min_cycle;Max_cycle;Signal;HPM_P1;HPM_P2
2022/01/21 00:00:31;;;;;;;21.80;15.52;;;8.10;99.90;;;;;;5030103;28;20040;-75
2022/01/21 00:02:57;;;;;;;21.52;15.80;;;8.10;99.90;;;;;;5030540;28;21512;-73
2022/01/21 00:05:24;;;;;;;23.08;15.98;;;8.10;99.90;;;;;;5012297;28;20079;-75
2022/01/21 00:07:50;;;;;;;24.08;16.98;;;8.00;99.90;;;;;;5037896;28;20048;-75
2022/01/21 00:10:17;;;;;;;22.73;17.02;;;8.00;99.90;;;;;;5041015;28;20080;-73
2022/01/21 00:12:43;;;;;;;25.77;17.92;;;7.90;99.90;;;;;;5036193;28;20045;-74
2022/01/21 00:15:10;;;;;;;29.25;18.80;;;8.00;99.90;;;;;;5028187;28;20121;-76
2022/01/21 00:17:37;;;;;;;32.50;22.90;;;7.90;99.90;;;;;;5024724;28;20042;-72
2022/01/21 00:31:06;;;;;;;39.75;24.52;;;7.90;99.90;;;;;;5036905;28;20091;-76
2022/01/21 00:33:33;;;;;;;32.20;22.40;;;7.80;99.90;;;;;;5039149;28;20102;-75
2022/01/21 00:36:00;;;;;;;31.50;23.00;;;7.90;99.90;;;;;;5040062;28;20038;-74
2022/01/21 00:38:30;;;;;;;35.75;23.42;;;7.90;99.90;;;;;;5042174;28;20042;-77
2022/01/21 00:40:59;;;;;;;30.83;22.90;;;7.90;99.90;;;;;;5046848;28;20033;-74
2022/01/21 00:43:32;;;;;;;32.85;23.13;;;7.80;99.90;;;;;;5043329;28;20041;-73
2022/01/21 00:46:00;;;;;;;31.67;23.27;;;7.80;99.90;;;;;;5035184;28;20095;-74
2022/01/21 00:48:28;;;;;;;35.92;23.08;;;7.80;99.90;;;;;;5042979;28;20087;-74
2022/01/21 00:50:54;;;;;;;32.90;23.23;;;7.90;99.90;;;;;;5047558;28;20044;-73
2022/01/21 00:53:23;;;;;;;33.35;24.08;;;7.80;99.90;;;;;;5038692;28;20037;-75
2022/01/21 00:55:49;;;;;;;34.30;25.13;;;7.80;99.90;;;;;;5057303;28;20489;-76
2022/01/21 00:58:16;;;;;;;35.63;24.73;;;7.70;99.90;;;;;;5039348;28;20044;-78
2022/01/21 01:00:43;;;;;;;32.55;23.63;;;7.70;99.90;;;;;;5043348;28;20041;-73
2022/01/21 01:03:10;;;;;;;37.15;25.38;;;7.80;99.90;;;;;;5046775;28;20039;-73
2022/01/21 01:05:36;;;;;;;36.70;24.83;;;7.70;99.90;;;;;;5045185;28;20491;-73
2022/01/21 01:08:03;;;;;;;36.58;25.13;;;7.80;99.90;;;;;;5042138;28;20073;-77
2022/01/21 01:10:48;;;;;;;36.70;27.05;;;7.80;99.90;;;;;;5046320;28;20037;-74
2022/01/21 01:21:32;;;;;;;38.60;24.98;;;7.50;99.90;;;;;;5043098;28;20031;-71
2022/01/21 01:29:18;;;;;;;36.50;24.83;;;7.60;99.90;;;;;;5043989;28;20036;-73
2022/01/21 01:31:46;;;;;;;36.88;25.05;;;7.60;99.90;;;;;;5044138;28;20571;-74
2022/01/21 01:34:12;;;;;;;32.90;24.90;;;7.60;99.90;;;;;;5040047;28;20041;-74
2022/01/21 01:36:42;;;;;;;36.08;23.85;;;7.60;99.90;;;;;;5041483;28;20134;-73
2022/01/21 01:39:14;;;;;;;41.47;26.38;;;7.80;99.90;;;;;;5038630;28;20048;-75
2022/01/21 01:41:53;;;;;;;41.55;27.25;;;7.80;99.90;;;;;;5040194;28;20037;-79
2022/01/21 01:49:50;;;;;;;38.05;28.27;;;8.00;99.90;;;;;;5039771;28;20032;-73
2022/01/21 01:52:18;;;;;;;44.72;28.30;;;8.00;99.90;;;;;;5045648;28;20057;-75
2022/01/21 01:54:57;;;;;;;45.72;30.65;;;7.90;99.90;;;;;;5046087;28;20488;-74
2022/01/21 01:57:24;;;;;;;46.45;31.73;;;8.00;99.90;;;;;;5045563;28;20037;-73
2022/01/21 01:59:50;;;;;;;44.60;31.13;;;8.00;99.90;;;;;;5042513;28;20029;-75
2022/01/21 02:02:18;;;;;;;42.92;30.20;;;8.00;99.90;;;;;;5042784;28;20063;-73
2022/01/21 02:04:47;;;;;;;44.03;31.13;;;8.00;99.90;;;;;;5023706;28;20041;-73
2022/01/21 02:07:13;;;;;;;40.92;29.73;;;7.90;99.90;;;;;;5042497;28;20939;-73
2022/01/21 02:09:42;;;;;;;47.15;31.13;;;7.90;99.90;;;;;;5044342;28;20091;-73
2022/01/21 02:12:10;;;;;;;49.25;32.28;;;7.80;99.90;;;;;;5040547;28;20128;-73
2022/01/21 02:14:43;;;;;;;48.88;32.63;;;7.80;99.90;;;;;;5043417;28;20057;-78
2022/01/21 02:22:47;;;;;;;46.88;30.85;;;7.60;99.90;;;;;;5045678;28;20060;-78
2022/01/21 02:25:18;;;;;;;54.97;33.70;;;7.50;99.90;;;;;;5041877;28;20044;-73
2022/01/21 02:27:57;;;;;;;57.55;35.53;;;7.60;99.90;;;;;;5036750;28;20029;-76
2022/01/21 02:30:24;;;;;;;47.95;33.03;;;7.60;99.90;;;;;;5049668;28;20124;-77
2022/01/21 02:32:53;;;;;;;50.72;34.55;;;7.60;99.90;;;;;;5041571;28;20047;-73
2022/01/21 02:35:19;;;;;;;44.15;30.48;;;7.60;99.90;;;;;;5039336;28;20063;-72
2022/01/21 02:37:49;;;;;;;39.58;28.20;;;7.50;99.90;;;;;;5042126;28;20040;-76
2022/01/21 02:40:15;;;;;;;41.33;28.50;;;7.50;99.90;;;;;;5034118;28;20044;-76
2022/01/21 02:42:42;;;;;;;41.13;27.73;;;7.50;99.90;;;;;;5040811;28;20037;-73
2022/01/21 02:45:13;;;;;;;38.83;27.17;;;7.30;99.90;;;;;;5045121;28;20136;-71
2022/01/21 02:47:39;;;;;;;35.22;25.88;;;7.20;99.90;;;;;;5046862;28;20040;-75
2022/01/21 02:50:05;;;;;;;36.40;26.00;;;7.10;99.90;;;;;;5040346;28;20068;-74
2022/01/21 02:52:40;;;;;;;41.03;25.50;;;7.20;99.90;;;;;;5040976;28;20437;-75
2022/01/21 02:55:11;;;;;;;32.75;23.20;;;7.30;99.90;;;;;;5037506;28;20037;-72
2022/01/21 02:57:37;;;;;;;35.42;23.35;;;7.40;99.90;;;;;;5038939;28;20029;-71
2022/01/21 03:00:06;;;;;;;29.52;21.88;;;7.40;99.90;;;;;;5046917;28;20064;-78
2022/01/21 03:02:33;;;;;;;28.88;21.58;;;7.40;99.90;;;;;;5044937;28;20119;-73
2022/01/21 03:05:09;;;;;;;29.25;20.92;;;7.50;99.90;;;;;;5041520;28;20060;-73
2022/01/21 03:07:36;;;;;;;32.63;21.60;;;7.40;99.90;;;;;;5044855;28;20052;-77
2022/01/21 03:10:05;;;;;;;29.00;21.00;;;7.40;99.90;;;;;;5038058;28;20048;-73
2022/01/21 03:12:32;;;;;;;30.60;20.80;;;7.20;99.90;;;;;;5056186;28;20385;-72
2022/01/21 03:14:58;;;;;;;31.23;20.65;;;7.20;99.90;;;;;;5047714;28;20052;-77
2022/01/21 03:17:25;;;;;;;28.65;21.88;;;7.20;99.90;;;;;;5040249;28;20044;-75
2022/01/21 03:19:51;;;;;;;30.70;21.88;;;7.20;99.90;;;;;;5051369;28;20034;-76
2022/01/21 03:22:17;;;;;;;31.20;21.83;;;7.30;99.90;;;;;;5045549;28;20037;-78
2022/01/21 03:24:48;;;;;;;31.10;21.38;;;7.40;99.90;;;;;;5044101;28;20034;-73
2022/01/21 03:27:14;;;;;;;31.08;22.70;;;7.40;99.90;;;;;;5037357;28;20064;-74
2022/01/21 03:29:40;;;;;;;35.63;22.63;;;7.40;99.90;;;;;;5049566;28;20029;-75
2022/01/21 03:32:08;;;;;;;31.88;23.73;;;7.30;99.90;;;;;;5043309;28;20144;-72
2022/01/21 03:34:34;;;;;;;34.50;23.42;;;7.40;99.90;;;;;;5043185;28;20037;-73
2022/01/21 03:37:02;;;;;;;32.63;22.45;;;7.40;99.90;;;;;;5044734;28;20074;-74
2022/01/21 03:39:29;;;;;;;32.17;21.77;;;7.40;99.90;;;;;;5053066;28;20038;-73
2022/01/21 03:41:57;;;;;;;32.00;22.90;;;7.30;99.90;;;;;;5045883;28;20059;-76
2022/01/21 03:44:24;;;;;;;36.40;23.65;;;7.30;99.90;;;;;;5042779;28;20033;-72
2022/01/21 03:46:53;;;;;;;32.03;22.58;;;7.20;99.90;;;;;;5040066;28;20040;-75
2022/01/21 03:49:21;;;;;;;30.95;22.23;;;7.20;99.90;;;;;;5026713;28;20025;-74
2022/01/21 03:51:49;;;;;;;31.40;20.60;;;7.20;99.90;;;;;;5046940;28;20025;-77
2022/01/21 03:54:15;;;;;;;30.30;21.75;;;7.20;99.90;;;;;;5043917;28;20045;-73
2022/01/21 03:56:41;;;;;;;30.58;21.23;;;7.20;99.90;;;;;;5042312;28;20039;-77
2022/01/21 03:59:07;;;;;;;30.60;21.25;;;7.20;99.90;;;;;;5049375;28;20125;-71
2022/01/21 04:01:34;;;;;;;28.33;20.50;;;7.20;99.90;;;;;;5050583;28;20045;-72
2022/01/21 04:04:03;;;;;;;29.80;20.48;;;7.10;99.90;;;;;;5042036;28;20037;-77
2022/01/21 04:06:30;;;;;;;29.13;20.70;;;7.00;99.90;;;;;;5048160;28;20866;-78
2022/01/21 04:08:56;;;;;;;27.30;20.23;;;7.00;99.90;;;;;;5045063;28;20026;-73
2022/01/21 04:11:22;;;;;;;29.98;21.00;;;7.10;99.90;;;;;;5046187;28;21607;-76
2022/01/21 04:13:48;;;;;;;28.30;19.98;;;7.10;99.90;;;;;;5044158;28;20033;-74
2022/01/21 04:16:14;;;;;;;28.38;19.02;;;7.10;99.90;;;;;;5043586;28;20037;-73
2022/01/21 04:18:41;;;;;;;30.95;20.65;;;7.10;99.90;;;;;;5046457;28;20044;-78
2022/01/21 04:21:08;;;;;;;30.00;20.25;;;7.20;99.90;;;;;;5042804;28;20037;-72
2022/01/21 04:23:35;;;;;;;31.00;20.05;;;7.10;99.90;;;;;;5042666;28;20055;-78
2022/01/21 04:26:00;;;;;;;30.52;21.33;;;7.10;99.90;;;;;;5046908;28;20044;-73
2022/01/21 04:28:29;;;;;;;30.08;20.05;;;7.00;99.90;;;;;;5042430;28;20439;-73
2022/01/21 04:30:56;;;;;;;30.20;21.50;;;7.00;99.90;;;;;;5043306;28;20029;-72
2022/01/21 04:33:22;;;;;;;31.75;21.63;;;6.90;99.90;;;;;;5035865;28;22977;-77
2022/01/21 04:35:48;;;;;;;32.60;22.05;;;6.90;99.90;;;;;;5047082;28;20040;-74
2022/01/21 04:38:17;;;;;;;30.40;21.98;;;6.80;99.90;;;;;;5044526;28;20037;-76
2022/01/21 04:40:55;;;;;;;31.33;21.90;;;6.80;99.90;;;;;;5046796;28;20036;-72
2022/01/21 04:48:51;;;;;;;32.50;22.20;;;6.90;99.90;;;;;;5046466;28;20095;-76
2022/01/21 04:51:21;;;;;;;31.88;23.20;;;6.90;99.90;;;;;;5041690;28;20048;-74
2022/01/21 04:53:49;;;;;;;34.50;23.50;;;7.00;99.90;;;;;;5044871;28;20047;-72
2022/01/21 04:56:15;;;;;;;34.53;24.48;;;7.10;99.90;;;;;;5040830;28;20046;-73
2022/01/21 04:58:43;;;;;;;33.45;22.48;;;7.10;99.90;;;;;;5020764;28;20142;-73
2022/01/21 05:01:11;;;;;;;29.35;20.92;;;7.20;99.90;;;;;;5044349;28;20045;-74
2022/01/21 05:03:39;;;;;;;32.22;21.35;;;7.20;99.90;;;;;;5033792;28;20411;-75
2022/01/21 05:06:08;;;;;;;30.63;20.55;;;7.20;99.90;;;;;;5023833;28;20045;-75
2022/01/21 05:08:52;;;;;;;29.20;20.15;;;7.30;99.90;;;;;;5041743;28;20080;-73
2022/01/21 05:11:18;;;;;;;31.83;20.52;;;7.30;99.90;;;;;;5039856;28;20044;-77
2022/01/21 05:13:54;;;;;;;26.70;19.00;;;7.40;99.90;;;;;;5029155;28;20040;-72
2022/01/21 05:18:48;;;;;;;26.38;19.88;;;7.50;99.90;;;;;;5048384;28;20465;-75
2022/01/21 05:21:14;;;;;;;26.23;18.13;;;7.50;99.90;;;;;;5035819;28;20041;-77
2022/01/21 05:23:41;;;;;;;28.40;20.38;;;7.40;99.90;;;;;;5038974;28;20516;-78
2022/01/21 05:26:08;;;;;;;29.23;18.52;;;7.40;99.90;;;;;;5048880;28;20029;-76
2022/01/21 05:28:35;;;;;;;30.42;19.15;;;7.40;99.90;;;;;;5032432;28;20428;-73
2022/01/21 05:31:01;;;;;;;29.08;18.48;;;7.30;99.90;;;;;;5043702;28;20396;-75
2022/01/21 05:33:27;;;;;;;26.15;18.20;;;7.20;99.90;;;;;;5043272;28;20044;-77
2022/01/21 05:35:53;;;;;;;28.42;18.42;;;7.10;99.90;;;;;;5050460;28;20041;-73
2022/01/21 05:38:19;;;;;;;24.95;18.67;;;7.10;99.90;;;;;;5039220;28;20857;-76
2022/01/21 05:40:47;;;;;;;28.42;19.45;;;7.00;99.90;;;;;;5043994;28;20030;-77
2022/01/21 05:43:13;;;;;;;28.55;19.67;;;7.10;99.90;;;;;;5055689;28;20529;-73
2022/01/21 05:48:25;;;;;;;27.83;20.52;;;7.10;99.90;;;;;;5039505;28;20048;-76
2022/01/21 05:50:52;;;;;;;29.30;20.52;;;7.00;99.90;;;;;;5048725;28;20045;-73
2022/01/21 05:53:18;;;;;;;30.25;20.95;;;7.10;99.90;;;;;;5038500;28;20103;-75
2022/01/21 05:55:44;;;;;;;29.85;20.83;;;7.00;99.90;;;;;;5044671;28;20045;-77
2022/01/21 05:58:13;;;;;;;30.95;22.10;;;7.00;99.90;;;;;;5039685;28;20068;-74
2022/01/21 06:00:43;;;;;;;30.40;21.90;;;7.00;99.90;;;;;;5043396;28;20539;-73
2022/01/21 06:03:11;;;;;;;33.83;22.17;;;7.00;99.90;;;;;;5041157;28;20040;-75
2022/01/21 06:05:39;;;;;;;33.35;22.70;;;6.90;99.90;;;;;;5045987;28;20615;-72
2022/01/21 06:08:07;;;;;;;34.35;23.08;;;6.90;99.90;;;;;;5036699;28;20693;-77
2022/01/21 06:10:33;;;;;;;31.30;22.90;;;6.80;99.90;;;;;;5049212;28;20061;-77
2022/01/21 06:12:59;;;;;;;36.05;24.52;;;6.80;99.90;;;;;;5040718;28;20056;-78
2022/01/21 06:15:26;;;;;;;35.10;23.13;;;6.80;99.90;;;;;;5039881;28;20092;-74
2022/01/21 06:17:52;;;;;;;33.38;23.30;;;6.70;99.90;;;;;;5043557;28;20562;-74
2022/01/21 06:20:18;;;;;;;31.75;21.23;;;6.80;99.90;;;;;;5040071;28;20045;-76
2022/01/21 06:22:45;;;;;;;33.25;22.67;;;6.80;99.90;;;;;;5041817;28;20042;-72
2022/01/21 06:25:11;;;;;;;33.70;21.83;;;6.90;99.90;;;;;;5039245;28;20127;-77
2022/01/21 06:27:39;;;;;;;32.72;21.75;;;7.00;99.90;;;;;;5041587;28;20093;-77
2022/01/21 06:30:08;;;;;;;31.00;21.38;;;7.00;99.90;;;;;;5038895;28;20099;-78
2022/01/21 06:32:36;;;;;;;30.17;21.50;;;7.10;99.90;;;;;;5054216;28;20041;-78
2022/01/21 06:35:03;;;;;;;34.22;22.63;;;7.20;99.90;;;;;;5042967;28;20045;-75
2022/01/21 06:37:30;;;;;;;32.28;20.58;;;7.30;99.90;;;;;;5040027;28;20135;-75
2022/01/21 06:39:57;;;;;;;32.92;21.27;;;7.30;99.90;;;;;;5046118;28;20075;-78
2022/01/21 06:42:29;;;;;;;28.40;20.35;;;7.40;99.90;;;;;;5044325;28;20081;-74
2022/01/21 06:44:55;;;;;;;34.65;19.58;;;7.50;99.90;;;;;;5042917;28;20044;-78
2022/01/21 06:47:21;;;;;;;28.65;19.63;;;7.60;99.90;;;;;;5045169;28;20374;-75
2022/01/21 06:49:48;;;;;;;29.98;20.38;;;7.60;99.90;;;;;;5041477;28;20093;-74
2022/01/21 06:52:14;;;;;;;24.27;19.13;;;7.70;99.90;;;;;;5043665;28;20763;-75
2022/01/21 06:54:42;;;;;;;28.02;18.92;;;7.70;99.90;;;;;;5049691;28;20034;-73
2022/01/21 06:57:08;;;;;;;27.40;19.42;;;7.70;99.90;;;;;;5037666;28;20026;-76
2022/01/21 06:59:35;;;;;;;28.48;19.10;;;7.70;99.90;;;;;;5041153;28;20040;-73
2022/01/21 07:02:01;;;;;;;27.13;19.77;;;7.70;99.90;;;;;;5041767;28;20370;-77
2022/01/21 07:04:28;;;;;;;26.88;19.25;;;7.70;99.90;;;;;;5036420;28;20380;-73
2022/01/21 07:06:57;;;;;;;24.95;17.38;;;7.70;99.90;;;;;;5045593;28;20057;-77
2022/01/21 07:09:25;;;;;;;28.13;19.13;;;7.70;99.90;;;;;;5043049;28;20057;-77
2022/01/21 07:11:51;;;;;;;21.67;15.02;;;7.50;99.90;;;;;;5043184;28;20040;-78
2022/01/21 07:14:17;;;;;;;19.67;14.38;;;7.40;99.90;;;;;;5039622;28;20092;-78
2022/01/21 07:16:44;;;;;;;17.58;12.75;;;7.40;99.90;;;;;;5045160;28;20064;-77
2022/01/21 07:19:09;;;;;;;20.42;13.18;;;7.40;99.90;;;;;;5047164;28;20115;-77
2022/01/21 07:21:35;;;;;;;17.67;13.13;;;7.30;99.90;;;;;;5047379;28;20072;-77
2022/01/21 07:24:02;;;;;;;20.38;13.57;;;7.30;99.90;;;;;;5045856;28;20449;-76
2022/01/21 07:26:28;;;;;;;18.90;13.05;;;7.30;99.90;;;;;;5037833;28;20048;-72
2022/01/21 07:28:55;;;;;;;23.92;13.48;;;7.20;99.90;;;;;;5043902;28;20697;-76
2022/01/21 07:31:22;;;;;;;19.27;13.27;;;7.20;99.90;;;;;;5040141;28;20029;-76
2022/01/21 07:33:49;;;;;;;20.52;13.10;;;7.30;99.90;;;;;;5037906;28;20667;-77
2022/01/21 07:36:16;;;;;;;17.58;12.23;;;7.40;99.90;;;;;;5044351;28;20034;-76
2022/01/21 07:38:43;;;;;;;20.17;12.70;;;7.40;99.90;;;;;;5049991;28;20033;-77
2022/01/21 07:41:11;;;;;;;19.92;13.73;;;7.40;99.90;;;;;;5039900;28;20341;-74
2022/01/21 07:43:37;;;;;;;18.67;12.82;;;7.40;99.90;;;;;;5042499;28;20127;-77
2022/01/21 07:46:04;;;;;;;20.75;13.25;;;7.50;99.90;;;;;;5042641;28;20064;-76
2022/01/21 07:48:31;;;;;;;19.40;13.45;;;7.50;99.90;;;;;;5045303;28;20037;-78
2022/01/21 07:50:58;;;;;;;18.70;13.65;;;7.50;99.90;;;;;;5037409;28;20063;-76
2022/01/21 07:53:23;;;;;;;19.00;13.63;;;7.40;99.90;;;;;;5039920;28;20049;-77
2022/01/21 07:55:54;;;;;;;19.42;13.38;;;7.40;99.90;;;;;;5044595;28;20489;-77
2022/01/21 07:58:20;;;;;;;19.75;13.43;;;7.40;99.90;;;;;;5045636;28;20075;-76
2022/01/21 08:00:48;;;;;;;18.60;13.35;;;7.40;99.90;;;;;;5044855;28;20501;-75
2022/01/21 08:03:16;;;;;;;20.17;13.32;;;7.40;99.90;;;;;;5047097;28;20048;-76
2022/01/21 08:05:44;;;;;;;19.92;13.90;;;7.50;99.90;;;;;;5050919;28;20040;-74
2022/01/21 08:08:10;;;;;;;19.17;13.63;;;7.50;99.90;;;;;;5044630;28;20093;-74
2022/01/21 08:10:37;;;;;;;17.63;12.10;;;7.60;99.90;;;;;;5023289;28;20056;-74
2022/01/21 08:13:03;;;;;;;16.52;12.40;;;7.60;99.90;;;;;;5032423;28;20072;-77
2022/01/21 08:15:30;;;;;;;15.95;11.50;;;7.70;99.90;;;;;;5038832;28;20045;-77
2022/01/21 08:17:57;;;;;;;15.43;11.38;;;7.80;99.90;;;;;;5046751;28;20124;-77
2022/01/21 08:20:23;;;;;;;19.35;12.20;;;7.90;99.90;;;;;;5042347;28;20060;-75
2022/01/21 08:22:49;;;;;;;20.25;13.50;;;7.80;99.90;;;;;;5048917;28;20123;-74
2022/01/21 08:25:17;;;;;;;19.02;13.48;;;7.80;99.90;;;;;;5043839;28;20037;-77
2022/01/21 08:27:43;;;;;;;20.73;13.27;;;7.80;99.90;;;;;;5040011;28;20099;-74
2022/01/21 08:30:10;;;;;;;20.88;13.93;;;7.80;99.90;;;;;;5032638;28;20096;-77
2022/01/21 08:32:37;;;;;;;21.48;15.00;;;7.90;99.90;;;;;;5033748;28;20044;-74
2022/01/21 08:35:09;;;;;;;22.80;15.68;;;7.80;99.90;;;;;;5024649;28;20052;-76
2022/01/21 08:37:36;;;;;;;17.67;12.55;;;7.70;99.90;;;;;;5010032;28;20040;-75
2022/01/21 08:40:06;;;;;;;19.70;12.40;;;7.60;99.90;;;;;;5029374;28;20045;-74
2022/01/21 08:42:32;;;;;;;17.27;11.43;;;7.50;99.90;;;;;;5032219;28;20057;-75
2022/01/21 08:44:58;;;;;;;16.77;11.38;;;7.50;99.90;;;;;;5031213;28;20052;-73
2022/01/21 08:47:25;;;;;;;14.63;9.98;;;7.50;99.90;;;;;;5029503;28;20116;-75
2022/01/21 08:49:51;;;;;;;13.15;9.55;;;7.70;99.90;;;;;;5036966;28;20041;-78
2022/01/21 08:52:20;;;;;;;14.02;9.25;;;7.90;99.90;;;;;;5029097;28;20038;-73
2022/01/21 08:54:48;;;;;;;14.45;9.45;;;7.90;99.90;;;;;;5028846;28;20052;-74
2022/01/21 08:57:15;;;;;;;15.00;9.85;;;7.80;99.90;;;;;;5029788;28;20135;-77
2022/01/21 08:59:41;;;;;;;14.48;9.93;;;7.50;99.90;;;;;;5041808;28;20041;-73
2022/01/21 09:02:09;;;;;;;13.00;9.98;;;7.70;99.90;;;;;;5038095;28;20044;-77
2022/01/21 09:04:37;;;;;;;18.92;11.13;;;7.70;99.90;;;;;;5029403;28;21439;-74
2022/01/21 09:07:04;;;;;;;15.02;10.70;;;7.80;99.90;;;;;;5041088;28;20087;-77
2022/01/21 09:09:30;;;;;;;15.80;10.05;;;7.90;99.90;;;;;;5041893;28;20479;-75
2022/01/21 09:12:00;;;;;;;16.73;10.68;;;8.10;99.90;;;;;;5042119;28;20029;-74
2022/01/21 09:14:29;;;;;;;16.67;12.68;;;8.10;99.90;;;;;;5040341;28;20041;-78
2022/01/21 09:16:56;;;;;;;19.08;12.90;;;8.10;99.90;;;;;;5029660;28;20037;-77
2022/01/21 09:19:24;;;;;;;20.98;13.43;;;8.00;99.90;;;;;;5037673;28;20218;-75
2022/01/21 09:21:52;;;;;;;25.58;15.27;;;7.90;99.90;;;;;;5033873;28;20060;-75
2022/01/21 09:24:21;;;;;;;22.30;15.52;;;7.70;99.90;;;;;;5002821;28;20554;-77
2022/01/21 09:26:48;;;;;;;20.52;15.27;;;7.70;99.90;;;;;;5021210;28;20392;-73
2022/01/21 09:29:15;;;;;;;20.20;13.85;;;7.60;99.90;;;;;;5028060;28;20067;-72
2022/01/21 09:31:41;;;;;;;19.95;12.80;;;7.50;99.90;;;;;;5031783;28;20494;-72
2022/01/21 09:34:08;;;;;;;21.83;13.18;;;7.40;99.90;;;;;;5027947;28;20088;-77
2022/01/21 09:36:34;;;;;;;20.80;14.50;;;7.50;99.90;;;;;;5027098;28;20036;-77
2022/01/21 09:39:00;;;;;;;20.55;13.52;;;7.70;99.90;;;;;;5028762;28;20037;-75
2022/01/21 09:41:29;;;;;;;22.23;13.52;;;7.80;99.90;;;;;;5028191;28;20500;-73
2022/01/21 09:43:57;;;;;;;18.65;13.00;;;7.90;99.90;;;;;;5027897;28;20044;-74
2022/01/21 09:46:33;;;;;;;20.45;14.05;;;8.20;99.90;;;;;;5032094;28;20052;-75
2022/01/21 09:49:42;;;;;;;19.75;14.88;;;9.30;99.90;;;;;;5026702;28;20044;-73
2022/01/21 09:51:50;;;;;;;21.33;14.82;;;9.30;99.90;;;;;;5019063;28;20040;-72
2022/01/21 09:54:18;;;;;;;19.33;14.93;;;9.60;99.90;;;;;;5010243;28;20547;-74
2022/01/21 09:56:45;;;;;;;24.23;15.30;;;9.70;99.90;;;;;;5001536;28;20067;-74
2022/01/21 09:59:13;;;;;;;19.30;14.15;;;10.10;99.90;;;;;;5022394;28;20045;-72
2022/01/21 10:01:39;;;;;;;17.90;13.70;;;10.00;99.90;;;;;;5022992;28;20088;-74
2022/01/21 10:04:12;;;;;;;20.95;14.77;;;10.10;99.90;;;;;;5025759;28;20049;-79
2022/01/21 10:06:38;;;;;;;19.83;14.93;;;9.90;99.90;;;;;;5023734;28;20179;-74
2022/01/21 10:09:07;;;;;;;20.55;13.70;;;9.80;99.90;;;;;;5026708;28;20045;-77
2022/01/21 10:11:33;;;;;;;17.17;13.30;;;9.60;99.90;;;;;;5019230;28;20077;-75
2022/01/21 10:13:59;;;;;;;17.70;13.15;;;9.60;99.90;;;;;;5029035;28;20496;-76
2022/01/21 10:16:25;;;;;;;17.77;12.32;;;9.20;99.90;;;;;;4988137;28;20049;-73
2022/01/21 10:19:06;;;;;;;15.13;11.73;;;9.20;99.90;;;;;;5029996;28;20626;-73
2022/01/21 10:21:34;;;;;;;16.35;11.65;;;9.70;99.90;;;;;;5025054;28;20487;-78
2022/01/21 10:24:06;;;;;;;17.08;12.20;;;10.10;99.90;;;;;;5023690;28;20810;-77
2022/01/21 10:26:34;;;;;;;16.95;12.05;;;10.00;99.90;;;;;;5024341;28;20480;-73
2022/01/21 10:29:02;;;;;;;15.90;11.40;;;10.10;99.90;;;;;;5031639;28;20060;-78
2022/01/21 10:31:30;;;;;;;17.45;10.85;;;10.30;99.90;;;;;;5024552;28;20053;-73
2022/01/21 10:34:03;;;;;;;14.50;11.27;;;10.60;99.90;;;;;;5021003;28;20112;-75
2022/01/21 10:36:34;;;;;;;15.52;10.35;;;10.80;99.90;;;;;;5024796;28;20553;-77
2022/01/21 10:39:18;;;;;;;14.23;10.18;;;10.80;99.90;;;;;;5011955;28;20193;-73
2022/01/21 10:41:47;;;;;;;15.48;10.20;;;11.40;99.90;;;;;;5017345;28;20038;-76
2022/01/21 10:44:15;;;;;;;15.23;11.98;;;11.60;99.90;;;;;;5027947;28;20095;-75
2022/01/21 10:46:46;;;;;;;16.73;11.70;;;11.30;99.90;;;;;;5021383;28;20064;-72
2022/01/21 10:49:14;;;;;;;15.82;10.70;;;11.60;99.90;;;;;;5026709;28;20712;-74
2022/01/21 10:51:49;;;;;;;14.15;10.60;;;11.70;99.90;;;;;;5029882;28;20088;-73
2022/01/21 10:54:19;;;;;;;13.75;9.43;;;11.80;99.90;;;;;;5014316;28;20047;-74
2022/01/21 10:57:19;;;;;;;14.20;10.63;;;12.10;99.90;;;;;;5024249;28;20484;-76
2022/01/21 11:00:09;;;;;;;15.38;11.75;;;12.00;99.90;;;;;;5026495;28;20626;-72
2022/01/21 11:02:47;;;;;;;14.75;11.32;;;12.40;99.90;;;;;;5017860;28;20065;-72
2022/01/21 11:05:25;;;;;;;17.92;11.00;;;12.30;99.80;;;;;;5025723;28;20064;-75
2022/01/21 11:08:03;;;;;;;14.63;10.68;;;12.40;99.90;;;;;;5025536;28;20051;-75
2022/01/21 11:10:36;;;;;;;13.45;10.40;;;13.00;99.80;;;;;;5017004;28;20071;-77
2022/01/21 11:13:23;;;;;;;15.07;10.52;;;13.10;99.40;;;;;;5023054;28;20041;-78
2022/01/21 11:15:56;;;;;;;12.52;10.02;;;12.70;99.10;;;;;;5026603;28;20037;-77
2022/01/21 11:18:23;;;;;;;13.20;9.82;;;12.60;99.60;;;;;;5028951;28;20037;-77
2022/01/21 11:21:08;;;;;;;12.35;9.32;;;12.90;99.50;;;;;;5024060;28;20126;-74
2022/01/21 11:23:38;;;;;;;12.98;9.40;;;12.20;99.20;;;;;;5027138;28;20468;-77
2022/01/21 11:26:09;;;;;;;12.50;9.25;;;11.80;99.90;;;;;;5027991;28;20052;-78
2022/01/21 11:28:49;;;;;;;12.93;9.30;;;11.00;99.90;;;;;;5021343;28;20063;-74
2022/01/21 11:31:19;;;;;;;12.35;9.02;;;11.20;99.90;;;;;;5030539;28;20053;-71
2022/01/21 11:33:46;;;;;;;14.73;9.48;;;10.70;99.90;;;;;;5027249;28;20033;-71
2022/01/21 11:36:13;;;;;;;12.80;10.30;;;10.20;99.90;;;;;;5023420;28;20038;-74
2022/01/21 11:38:44;;;;;;;13.00;9.75;;;10.30;99.90;;;;;;5025554;28;20056;-70
2022/01/21 11:41:13;;;;;;;14.50;10.68;;;11.40;99.90;;;;;;5038860;28;20463;-76
2022/01/21 11:43:55;;;;;;;17.58;11.07;;;12.00;99.90;;;;;;5025408;28;20045;-77
2022/01/21 11:48:56;;;;;;;13.48;8.90;;;12.60;99.00;;;;;;5039355;28;20075;-73
2022/01/21 11:51:33;;;;;;;14.68;9.63;;;12.00;99.60;;;;;;5025634;28;20068;-72
2022/01/21 11:54:14;;;;;;;13.63;9.10;;;11.60;99.90;;;;;;5025609;28;20578;-77
2022/01/21 11:57:00;;;;;;;13.00;7.90;;;13.40;98.70;;;;;;5027542;28;20131;-71
2022/01/21 12:02:00;;;;;;;10.30;7.57;;;13.70;96.90;;;;;;5027051;28;20067;-75
2022/01/21 12:04:30;;;;;;;10.85;7.55;;;13.20;96.60;;;;;;5041013;28;20048;-72
2022/01/21 12:07:01;;;;;;;9.93;7.80;;;12.70;97.80;;;;;;5028504;28;20033;-72
2022/01/21 12:10:15;;;;;;;10.27;8.27;;;13.00;97.40;;;;;;5032225;28;20396;-78
2022/01/21 12:13:05;;;;;;;8.65;7.38;;;12.70;98.30;;;;;;4999981;28;20037;-74
2022/01/21 12:15:40;;;;;;;10.63;6.93;;;13.20;97.00;;;;;;5001746;28;20758;-75
2022/01/21 12:18:33;;;;;;;12.13;7.70;;;13.80;96.30;;;;;;5007259;28;20100;-77
2022/01/21 12:21:24;;;;;;;9.82;7.20;;;14.80;95.50;;;;;;5038796;28;20029;-74
2022/01/21 12:23:53;;;;;;;8.55;6.95;;;14.30;95.30;;;;;;5045845;28;20075;-74
2022/01/21 12:26:30;;;;;;;9.05;6.18;;;14.90;94.80;;;;;;5042634;28;20445;-74
2022/01/21 12:29:02;;;;;;;8.15;6.63;;;14.20;94.30;;;;;;5050038;28;20096;-75
2022/01/21 12:31:47;;;;;;;9.70;6.85;;;14.90;94.60;;;;;;5048155;28;20053;-77
2022/01/21 12:34:15;;;;;;;8.77;6.97;;;15.20;94.20;;;;;;5032120;28;20147;-73
2022/01/21 12:37:07;;;;;;;7.63;6.35;;;16.10;94.00;;;;;;5038787;28;20037;-73
2022/01/21 12:39:47;;;;;;;8.95;7.03;;;16.20;93.20;;;;;;5012344;28;20049;-73
2022/01/21 12:42:20;;;;;;;8.90;7.22;;;15.30;93.00;;;;;;5019078;28;20044;-72
2022/01/21 12:44:49;;;;;;;7.85;6.63;;;16.00;93.10;;;;;;5029602;28;20030;-76
2022/01/21 12:47:33;;;;;;;8.45;6.50;;;16.70;92.80;;;;;;5022017;28;20040;-74
2022/01/21 12:55:57;;;;;;;8.93;5.80;;;16.80;91.90;;;;;;5028154;28;20523;-76
2022/01/21 12:58:41;;;;;;;10.25;5.60;;;16.50;91.80;;;;;;5026487;28;20034;-76
2022/01/21 13:01:09;;;;;;;9.27;6.82;;;16.80;91.80;;;;;;5020148;28;20060;-77
2022/01/21 13:03:43;;;;;;;8.18;6.45;;;16.70;91.60;;;;;;5040952;28;20788;-76
2022/01/21 13:06:19;;;;;;;9.57;6.60;;;16.50;92.10;;;;;;5034806;28;24025;-75
2022/01/21 13:09:08;;;;;;;7.25;5.40;;;17.50;91.60;;;;;;5045096;28;20119;-73
2022/01/21 13:11:41;;;;;;;6.35;5.53;;;17.00;90.70;;;;;;5023735;28;20365;-78
2022/01/21 13:17:05;;;;;;;9.63;7.18;;;18.40;90.40;;;;;;5041608;28;20106;-73
2022/01/21 13:19:54;;;;;;;8.30;6.15;;;18.00;90.70;;;;;;5041883;28;20443;-76
2022/01/21 13:22:23;;;;;;;7.57;5.90;;;18.80;90.00;;;;;;5039471;28;20095;-73
2022/01/21 13:25:02;;;;;;;9.57;6.47;;;18.80;89.60;;;;;;5033472;28;20041;-74
2022/01/21 13:27:29;;;;;;;8.55;6.00;;;19.20;88.10;;;;;;5034637;28;20037;-75
2022/01/21 13:30:09;;;;;;;7.38;5.60;;;19.00;87.70;;;;;;5036467;28;20029;-78
2022/01/21 13:32:36;;;;;;;7.55;5.65;;;20.00;87.00;;;;;;5032781;28;20039;-72
2022/01/21 13:35:09;;;;;;;8.57;6.07;;;20.10;85.70;;;;;;5042723;28;20033;-77
2022/01/21 13:37:37;;;;;;;17.55;6.25;;;19.20;86.00;;;;;;5036658;28;20060;-71
2022/01/21 13:40:05;;;;;;;5.32;4.70;;;19.20;86.40;;;;;;5019518;28;20037;-76
2022/01/21 13:42:32;;;;;;;8.85;5.78;;;17.50;88.10;;;;;;5039448;28;20041;-77
2022/01/21 13:45:04;;;;;;;6.85;5.68;;;16.20;90.60;;;;;;5018077;28;20060;-74
2022/01/21 13:47:31;;;;;;;7.20;6.07;;;14.60;92.00;;;;;;5052077;28;20099;-77
2022/01/21 13:50:06;;;;;;;6.90;5.50;;;14.40;92.70;;;;;;5042369;28;20648;-72